sensor_id;sensor_type;location;lat;lon;timestamp;P1;durP1;ratioP1;P2;durP2;ratioP2
66139;SDS011;52945;51.908;8.364;2023-09-19T00:00:27;4.10;;;1.27;;
66139;SDS011;52945;51.908;8.364;2023-09-19T00:06:29;3.08;;;1.23;;
66139;SDS011;52945;51.908;8.364;2023-09-19T00:09:32;4.20;;;1.35;;
66139;SDS011;52945;51.908;8.364;2023-09-19T00:12:37;1.92;;;1.00;;
66139;SDS011;52945;51.908;8.364;2023-09-19T00:15:44;2.35;;;1.20;;
66139;SDS011;52945;51.908;8.364;2023-09-19T00:18:48;3.13;;;1.17;;
66139;SDS011;52945;51.908;8.364;2023-09-19T00:21:49;2.60;;;1.30;;
66139;SDS011;52945;51.908;8.364;2023-09-19T00:27:51;4.45;;;1.58;;
66139;SDS011;52945;51.908;8.364;2023-09-19T00:33:56;4.40;;;1.52;;
66139;SDS011;52945;51.908;8.364;2023-09-19T00:37:00;2.17;;;1.25;;
66139;SDS011;52945;51.908;8.364;2023-09-19T00:43:01;4.90;;;1.65;;
66139;SDS011;52945;51.908;8.364;2023-09-19T00:49:04;4.30;;;1.85;;
66139;SDS011;52945;51.908;8.364;2023-09-19T00:52:07;3.05;;;1.70;;
66139;SDS011;52945;51.908;8.364;2023-09-19T00:55:11;4.35;;;1.95;;
66139;SDS011;52945;51.908;8.364;2023-09-19T00:58:13;6.07;;;1.80;;
66139;SDS011;52945;51.908;8.364;2023-09-19T01:04:14;4.70;;;1.98;;
66139;SDS011;52945;51.908;8.364;2023-09-19T01:07:17;6.45;;;1.98;;
66139;SDS011;52945;51.908;8.364;2023-09-19T01:10:19;7.28;;;1.92;;
66139;SDS011;52945;51.908;8.364;2023-09-19T01:17:19;5.20;;;1.80;;
66139;SDS011;52945;51.908;8.364;2023-09-19T01:23:57;7.20;;;2.45;;
66139;SDS011;52945;51.908;8.364;2023-09-19T01:30:35;5.55;;;2.60;;
66139;SDS011;52945;51.908;8.364;2023-09-19T01:33:59;5.50;;;2.30;;
66139;SDS011;52945;51.908;8.364;2023-09-19T01:37:00;10.65;;;2.38;;
66139;SDS011;52945;51.908;8.364;2023-09-19T01:40:04;5.55;;;2.13;;
66139;SDS011;52945;51.908;8.364;2023-09-19T01:43:21;5.13;;;2.20;;
66139;SDS011;52945;51.908;8.364;2023-09-19T01:46:33;3.90;;;2.05;;
66139;SDS011;52945;51.908;8.364;2023-09-19T01:49:38;3.60;;;1.70;;
66139;SDS011;52945;51.908;8.364;2023-09-19T01:52:57;3.83;;;1.73;;
66139;SDS011;52945;51.908;8.364;2023-09-19T01:56:10;6.75;;;2.00;;
66139;SDS011;52945;51.908;8.364;2023-09-19T01:59:17;3.97;;;1.88;;
66139;SDS011;52945;51.908;8.364;2023-09-19T02:02:23;5.00;;;1.77;;
66139;SDS011;52945;51.908;8.364;2023-09-19T02:05:25;4.95;;;1.83;;
66139;SDS011;52945;51.908;8.364;2023-09-19T02:08:28;5.35;;;1.92;;
66139;SDS011;52945;51.908;8.364;2023-09-19T02:11:31;3.97;;;1.35;;
66139;SDS011;52945;51.908;8.364;2023-09-19T02:17:32;5.88;;;1.48;;
66139;SDS011;52945;51.908;8.364;2023-09-19T02:23:33;5.03;;;1.30;;
66139;SDS011;52945;51.908;8.364;2023-09-19T02:29:35;2.30;;;1.10;;
66139;SDS011;52945;51.908;8.364;2023-09-19T02:35:38;5.53;;;1.55;;
66139;SDS011;52945;51.908;8.364;2023-09-19T02:41:40;4.95;;;1.13;;
66139;SDS011;52945;51.908;8.364;2023-09-19T02:44:41;3.95;;;1.35;;
66139;SDS011;52945;51.908;8.364;2023-09-19T02:50:43;1.83;;;1.10;;
66139;SDS011;52945;51.908;8.364;2023-09-19T02:53:44;4.55;;;1.58;;
66139;SDS011;52945;51.908;8.364;2023-09-19T02:56:47;5.57;;;1.40;;
66139;SDS011;52945;51.908;8.364;2023-09-19T03:02:49;5.43;;;1.50;;
66139;SDS011;52945;51.908;8.364;2023-09-19T03:05:51;6.07;;;1.67;;
66139;SDS011;52945;51.908;8.364;2023-09-19T03:08:53;6.88;;;1.70;;
66139;SDS011;52945;51.908;8.364;2023-09-19T03:11:55;7.97;;;1.75;;
66139;SDS011;52945;51.908;8.364;2023-09-19T03:14:56;10.68;;;2.17;;
66139;SDS011;52945;51.908;8.364;2023-09-19T03:21:01;3.97;;;1.20;;
66139;SDS011;52945;51.908;8.364;2023-09-19T03:24:03;5.35;;;1.17;;
66139;SDS011;52945;51.908;8.364;2023-09-19T03:27:04;4.50;;;1.25;;
66139;SDS011;52945;51.908;8.364;2023-09-19T03:30:05;4.38;;;1.17;;
66139;SDS011;52945;51.908;8.364;2023-09-19T03:33:13;3.30;;;1.20;;
66139;SDS011;52945;51.908;8.364;2023-09-19T03:36:15;6.85;;;1.58;;
66139;SDS011;52945;51.908;8.364;2023-09-19T03:39:15;5.05;;;1.25;;
66139;SDS011;52945;51.908;8.364;2023-09-19T03:45:17;4.80;;;1.30;;
66139;SDS011;52945;51.908;8.364;2023-09-19T03:48:18;3.70;;;1.27;;
66139;SDS011;52945;51.908;8.364;2023-09-19T03:54:21;5.82;;;1.20;;
66139;SDS011;52945;51.908;8.364;2023-09-19T03:57:22;8.00;;;1.58;;
66139;SDS011;52945;51.908;8.364;2023-09-19T04:03:27;6.55;;;1.27;;
66139;SDS011;52945;51.908;8.364;2023-09-19T04:06:35;4.40;;;1.27;;
66139;SDS011;52945;51.908;8.364;2023-09-19T04:09:36;4.93;;;1.27;;
66139;SDS011;52945;51.908;8.364;2023-09-19T04:12:37;3.35;;;1.00;;
66139;SDS011;52945;51.908;8.364;2023-09-19T04:15:39;6.47;;;1.27;;
66139;SDS011;52945;51.908;8.364;2023-09-19T04:18:41;5.93;;;1.52;;
66139;SDS011;52945;51.908;8.364;2023-09-19T04:21:41;6.47;;;1.17;;
66139;SDS011;52945;51.908;8.364;2023-09-19T04:27:44;5.75;;;1.08;;
66139;SDS011;52945;51.908;8.364;2023-09-19T04:30:46;8.43;;;1.05;;
66139;SDS011;52945;51.908;8.364;2023-09-19T04:33:48;3.88;;;1.13;;
66139;SDS011;52945;51.908;8.364;2023-09-19T04:36:48;7.50;;;1.40;;
66139;SDS011;52945;51.908;8.364;2023-09-19T04:42:53;6.43;;;1.35;;
66139;SDS011;52945;51.908;8.364;2023-09-19T04:45:59;2.70;;;1.42;;
66139;SDS011;52945;51.908;8.364;2023-09-19T04:49:00;3.90;;;1.30;;
66139;SDS011;52945;51.908;8.364;2023-09-19T04:52:02;4.82;;;1.40;;
66139;SDS011;52945;51.908;8.364;2023-09-19T04:55:03;3.25;;;1.23;;
66139;SDS011;52945;51.908;8.364;2023-09-19T05:01:05;6.07;;;1.45;;
66139;SDS011;52945;51.908;8.364;2023-09-19T05:04:11;6.55;;;1.20;;
66139;SDS011;52945;51.908;8.364;2023-09-19T05:07:12;7.03;;;1.05;;
66139;SDS011;52945;51.908;8.364;2023-09-19T05:10:13;5.15;;;1.15;;
66139;SDS011;52945;51.908;8.364;2023-09-19T05:13:18;3.40;;;1.58;;
66139;SDS011;52945;51.908;8.364;2023-09-19T05:16:19;2.88;;;1.00;;
66139;SDS011;52945;51.908;8.364;2023-09-19T05:19:20;5.03;;;1.40;;
66139;SDS011;52945;51.908;8.364;2023-09-19T05:22:20;9.23;;;1.50;;
66139;SDS011;52945;51.908;8.364;2023-09-19T05:25:21;5.28;;;1.23;;
66139;SDS011;52945;51.908;8.364;2023-09-19T05:31:22;6.32;;;1.35;;
66139;SDS011;52945;51.908;8.364;2023-09-19T05:34:24;2.85;;;1.20;;
66139;SDS011;52945;51.908;8.364;2023-09-19T05:37:28;2.63;;;1.00;;
66139;SDS011;52945;51.908;8.364;2023-09-19T05:40:29;5.75;;;1.05;;
66139;SDS011;52945;51.908;8.364;2023-09-19T05:43:30;4.97;;;1.00;;
66139;SDS011;52945;51.908;8.364;2023-09-19T05:46:31;5.80;;;1.27;;
66139;SDS011;52945;51.908;8.364;2023-09-19T05:49:31;5.18;;;1.10;;
66139;SDS011;52945;51.908;8.364;2023-09-19T05:55:33;5.90;;;1.08;;
66139;SDS011;52945;51.908;8.364;2023-09-19T05:58:34;4.70;;;1.20;;
66139;SDS011;52945;51.908;8.364;2023-09-19T06:01:34;3.03;;;1.00;;
66139;SDS011;52945;51.908;8.364;2023-09-19T06:07:35;5.35;;;1.17;;
66139;SDS011;52945;51.908;8.364;2023-09-19T06:10:37;2.60;;;0.82;;
66139;SDS011;52945;51.908;8.364;2023-09-19T06:13:37;3.22;;;1.13;;
66139;SDS011;52945;51.908;8.364;2023-09-19T06:16:39;5.22;;;1.13;;
66139;SDS011;52945;51.908;8.364;2023-09-19T06:19:41;4.80;;;1.17;;
66139;SDS011;52945;51.908;8.364;2023-09-19T06:22:47;2.72;;;1.13;;
66139;SDS011;52945;51.908;8.364;2023-09-19T06:25:48;6.68;;;1.42;;
66139;SDS011;52945;51.908;8.364;2023-09-19T06:28:49;3.05;;;1.00;;
66139;SDS011;52945;51.908;8.364;2023-09-19T06:31:49;4.55;;;1.05;;
66139;SDS011;52945;51.908;8.364;2023-09-19T06:34:54;8.05;;;1.50;;
66139;SDS011;52945;51.908;8.364;2023-09-19T06:37:55;3.10;;;1.20;;
66139;SDS011;52945;51.908;8.364;2023-09-19T06:40:58;7.35;;;1.20;;
66139;SDS011;52945;51.908;8.364;2023-09-19T06:43:59;7.15;;;1.27;;
66139;SDS011;52945;51.908;8.364;2023-09-19T06:47:01;2.97;;;0.98;;
66139;SDS011;52945;51.908;8.364;2023-09-19T06:50:02;8.60;;;1.05;;
66139;SDS011;52945;51.908;8.364;2023-09-19T06:53:03;4.05;;;1.00;;
66139;SDS011;52945;51.908;8.364;2023-09-19T06:56:03;1.95;;;0.95;;
66139;SDS011;52945;51.908;8.364;2023-09-19T06:59:05;8.30;;;1.17;;
66139;SDS011;52945;51.908;8.364;2023-09-19T07:02:07;5.30;;;1.20;;
66139;SDS011;52945;51.908;8.364;2023-09-19T07:05:08;9.90;;;1.30;;
66139;SDS011;52945;51.908;8.364;2023-09-19T07:08:09;3.58;;;0.90;;
66139;SDS011;52945;51.908;8.364;2023-09-19T07:11:12;7.30;;;1.42;;
66139;SDS011;52945;51.908;8.364;2023-09-19T07:17:14;5.88;;;1.13;;
66139;SDS011;52945;51.908;8.364;2023-09-19T07:20:17;4.43;;;1.10;;
66139;SDS011;52945;51.908;8.364;2023-09-19T07:23:20;4.80;;;1.00;;
66139;SDS011;52945;51.908;8.364;2023-09-19T07:26:22;7.43;;;1.45;;
66139;SDS011;52945;51.908;8.364;2023-09-19T07:29:23;5.05;;;1.35;;
66139;SDS011;52945;51.908;8.364;2023-09-19T07:32:23;5.63;;;1.08;;
66139;SDS011;52945;51.908;8.364;2023-09-19T07:35:24;6.68;;;1.38;;
66139;SDS011;52945;51.908;8.364;2023-09-19T07:41:26;7.45;;;1.67;;
66139;SDS011;52945;51.908;8.364;2023-09-19T07:44:30;7.65;;;1.15;;
66139;SDS011;52945;51.908;8.364;2023-09-19T07:47:31;3.25;;;1.05;;
66139;SDS011;52945;51.908;8.364;2023-09-19T07:50:33;11.40;;;1.50;;
66139;SDS011;52945;51.908;8.364;2023-09-19T07:53:37;3.75;;;1.33;;
66139;SDS011;52945;51.908;8.364;2023-09-19T07:56:38;3.53;;;1.20;;
66139;SDS011;52945;51.908;8.364;2023-09-19T08:02:42;4.05;;;1.25;;
66139;SDS011;52945;51.908;8.364;2023-09-19T08:05:44;4.93;;;1.40;;
66139;SDS011;52945;51.908;8.364;2023-09-19T08:08:45;11.45;;;1.45;;
66139;SDS011;52945;51.908;8.364;2023-09-19T08:11:45;3.65;;;0.93;;
66139;SDS011;52945;51.908;8.364;2023-09-19T08:14:47;8.10;;;1.30;;
66139;SDS011;52945;51.908;8.364;2023-09-19T08:17:47;7.45;;;1.20;;
66139;SDS011;52945;51.908;8.364;2023-09-19T08:20:49;6.22;;;1.13;;
66139;SDS011;52945;51.908;8.364;2023-09-19T08:23:51;5.28;;;1.38;;
66139;SDS011;52945;51.908;8.364;2023-09-19T08:26:52;4.25;;;0.90;;
66139;SDS011;52945;51.908;8.364;2023-09-19T08:29:54;2.25;;;0.90;;
66139;SDS011;52945;51.908;8.364;2023-09-19T08:35:59;5.22;;;1.17;;
66139;SDS011;52945;51.908;8.364;2023-09-19T08:39:00;5.00;;;0.80;;
66139;SDS011;52945;51.908;8.364;2023-09-19T08:45:01;5.15;;;1.55;;
66139;SDS011;52945;51.908;8.364;2023-09-19T08:51:13;4.75;;;1.58;;
66139;SDS011;52945;51.908;8.364;2023-09-19T08:54:24;5.80;;;1.48;;
66139;SDS011;52945;51.908;8.364;2023-09-19T08:57:29;5.07;;;1.15;;
66139;SDS011;52945;51.908;8.364;2023-09-19T09:00:36;4.80;;;1.45;;
66139;SDS011;52945;51.908;8.364;2023-09-19T09:03:42;5.38;;;1.20;;
66139;SDS011;52945;51.908;8.364;2023-09-19T09:06:46;4.75;;;0.93;;
66139;SDS011;52945;51.908;8.364;2023-09-19T09:09:50;4.20;;;1.10;;
66139;SDS011;52945;51.908;8.364;2023-09-19T09:15:52;5.05;;;1.05;;
66139;SDS011;52945;51.908;8.364;2023-09-19T09:18:54;5.55;;;1.10;;
66139;SDS011;52945;51.908;8.364;2023-09-19T09:25:05;4.95;;;1.10;;
66139;SDS011;52945;51.908;8.364;2023-09-19T09:31:12;4.30;;;1.00;;
66139;SDS011;52945;51.908;8.364;2023-09-19T09:34:32;4.13;;;1.13;;
66139;SDS011;52945;51.908;8.364;2023-09-19T09:37:33;9.52;;;1.48;;
66139;SDS011;52945;51.908;8.364;2023-09-19T09:40:48;3.90;;;1.40;;
66139;SDS011;52945;51.908;8.364;2023-09-19T09:43:54;8.32;;;1.83;;
66139;SDS011;52945;51.908;8.364;2023-09-19T09:50:23;4.97;;;1.70;;
66139;SDS011;52945;51.908;8.364;2023-09-19T09:53:30;3.70;;;1.20;;
66139;SDS011;52945;51.908;8.364;2023-09-19T09:56:34;6.72;;;1.35;;
66139;SDS011;52945;51.908;8.364;2023-09-19T09:59:44;3.70;;;1.15;;
66139;SDS011;52945;51.908;8.364;2023-09-19T10:02:49;4.65;;;1.60;;
66139;SDS011;52945;51.908;8.364;2023-09-19T10:05:53;6.60;;;1.48;;
66139;SDS011;52945;51.908;8.364;2023-09-19T10:09:02;6.57;;;1.52;;
66139;SDS011;52945;51.908;8.364;2023-09-19T10:12:11;5.35;;;1.30;;
66139;SDS011;52945;51.908;8.364;2023-09-19T10:15:15;6.38;;;1.23;;
66139;SDS011;52945;51.908;8.364;2023-09-19T10:18:21;7.03;;;1.48;;
66139;SDS011;52945;51.908;8.364;2023-09-19T10:21:44;5.45;;;1.30;;
66139;SDS011;52945;51.908;8.364;2023-09-19T10:24:46;7.30;;;1.60;;
66139;SDS011;52945;51.908;8.364;2023-09-19T10:27:50;4.05;;;1.50;;
66139;SDS011;52945;51.908;8.364;2023-09-19T10:30:53;6.60;;;1.73;;
66139;SDS011;52945;51.908;8.364;2023-09-19T10:33:56;4.60;;;1.20;;
66139;SDS011;52945;51.908;8.364;2023-09-19T10:37:01;7.25;;;1.38;;
66139;SDS011;52945;51.908;8.364;2023-09-19T10:40:06;8.20;;;1.73;;
66139;SDS011;52945;51.908;8.364;2023-09-19T10:43:11;4.05;;;1.30;;
66139;SDS011;52945;51.908;8.364;2023-09-19T10:46:20;5.63;;;1.40;;
66139;SDS011;52945;51.908;8.364;2023-09-19T10:49:22;4.55;;;1.10;;
66139;SDS011;52945;51.908;8.364;2023-09-19T10:52:25;8.15;;;1.48;;
66139;SDS011;52945;51.908;8.364;2023-09-19T10:55:30;3.63;;;1.02;;
66139;SDS011;52945;51.908;8.364;2023-09-19T10:58:32;5.70;;;1.10;;
66139;SDS011;52945;51.908;8.364;2023-09-19T11:05:12;4.10;;;1.27;;
66139;SDS011;52945;51.908;8.364;2023-09-19T11:08:13;3.55;;;1.30;;
66139;SDS011;52945;51.908;8.364;2023-09-19T11:14:40;5.95;;;1.92;;
66139;SDS011;52945;51.908;8.364;2023-09-19T11:17:42;3.63;;;1.10;;
66139;SDS011;52945;51.908;8.364;2023-09-19T11:20:46;2.45;;;1.58;;
66139;SDS011;52945;51.908;8.364;2023-09-19T11:27:11;3.30;;;1.40;;
66139;SDS011;52945;51.908;8.364;2023-09-19T11:30:26;5.70;;;1.38;;
66139;SDS011;52945;51.908;8.364;2023-09-19T11:33:28;3.15;;;1.13;;
66139;SDS011;52945;51.908;8.364;2023-09-19T11:36:38;3.88;;;1.20;;
66139;SDS011;52945;51.908;8.364;2023-09-19T11:46:31;3.65;;;1.05;;
66139;SDS011;52945;51.908;8.364;2023-09-19T11:49:33;5.07;;;1.15;;
66139;SDS011;52945;51.908;8.364;2023-09-19T11:52:37;6.28;;;1.08;;
66139;SDS011;52945;51.908;8.364;2023-09-19T11:55:40;3.70;;;1.00;;
66139;SDS011;52945;51.908;8.364;2023-09-19T11:58:44;3.40;;;1.25;;
66139;SDS011;52945;51.908;8.364;2023-09-19T12:01:50;8.23;;;1.23;;
66139;SDS011;52945;51.908;8.364;2023-09-19T12:04:57;3.33;;;1.17;;
66139;SDS011;52945;51.908;8.364;2023-09-19T12:07:59;6.30;;;1.27;;
66139;SDS011;52945;51.908;8.364;2023-09-19T12:11:01;3.45;;;1.38;;
66139;SDS011;52945;51.908;8.364;2023-09-19T12:14:01;3.75;;;1.15;;
66139;SDS011;52945;51.908;8.364;2023-09-19T12:17:03;2.17;;;1.20;;
66139;SDS011;52945;51.908;8.364;2023-09-19T12:20:04;4.03;;;1.20;;
66139;SDS011;52945;51.908;8.364;2023-09-19T12:23:13;3.00;;;1.20;;
66139;SDS011;52945;51.908;8.364;2023-09-19T12:26:15;2.92;;;1.17;;
66139;SDS011;52945;51.908;8.364;2023-09-19T12:29:21;2.88;;;1.20;;
66139;SDS011;52945;51.908;8.364;2023-09-19T12:32:34;7.47;;;1.40;;
66139;SDS011;52945;51.908;8.364;2023-09-19T12:35:40;4.47;;;1.23;;
66139;SDS011;52945;51.908;8.364;2023-09-19T12:38:42;7.20;;;1.35;;
66139;SDS011;52945;51.908;8.364;2023-09-19T12:41:48;3.47;;;1.10;;
66139;SDS011;52945;51.908;8.364;2023-09-19T12:44:51;3.38;;;1.40;;
66139;SDS011;52945;51.908;8.364;2023-09-19T12:48:19;3.10;;;1.15;;
66139;SDS011;52945;51.908;8.364;2023-09-19T12:51:35;6.28;;;1.63;;
66139;SDS011;52945;51.908;8.364;2023-09-19T12:54:39;3.55;;;1.15;;
66139;SDS011;52945;51.908;8.364;2023-09-19T12:57:43;3.42;;;1.20;;
66139;SDS011;52945;51.908;8.364;2023-09-19T13:01:00;3.58;;;1.17;;
66139;SDS011;52945;51.908;8.364;2023-09-19T13:04:20;4.18;;;0.90;;
66139;SDS011;52945;51.908;8.364;2023-09-19T13:07:42;2.17;;;1.05;;
66139;SDS011;52945;51.908;8.364;2023-09-19T13:17:48;4.35;;;1.05;;
66139;SDS011;52945;51.908;8.364;2023-09-19T13:21:05;3.75;;;1.02;;
66139;SDS011;52945;51.908;8.364;2023-09-19T13:24:19;4.53;;;1.33;;
66139;SDS011;52945;51.908;8.364;2023-09-19T13:27:25;2.25;;;1.02;;
66139;SDS011;52945;51.908;8.364;2023-09-19T13:30:27;4.13;;;1.10;;
66139;SDS011;52945;51.908;8.364;2023-09-19T13:33:31;6.15;;;1.33;;
66139;SDS011;52945;51.908;8.364;2023-09-19T13:36:33;3.22;;;1.10;;
66139;SDS011;52945;51.908;8.364;2023-09-19T13:39:37;4.93;;;1.10;;
66139;SDS011;52945;51.908;8.364;2023-09-19T13:42:37;4.18;;;1.20;;
66139;SDS011;52945;51.908;8.364;2023-09-19T13:45:38;3.97;;;1.00;;
66139;SDS011;52945;51.908;8.364;2023-09-19T13:48:43;2.75;;;1.08;;
66139;SDS011;52945;51.908;8.364;2023-09-19T13:51:44;3.15;;;0.98;;
66139;SDS011;52945;51.908;8.364;2023-09-19T13:54:44;3.38;;;1.05;;
66139;SDS011;52945;51.908;8.364;2023-09-19T13:57:45;2.60;;;0.90;;
66139;SDS011;52945;51.908;8.364;2023-09-19T14:00:56;4.45;;;1.10;;
66139;SDS011;52945;51.908;8.364;2023-09-19T14:03:58;2.35;;;0.90;;
66139;SDS011;52945;51.908;8.364;2023-09-19T14:06:58;3.92;;;1.08;;
66139;SDS011;52945;51.908;8.364;2023-09-19T14:10:00;3.30;;;0.80;;
66139;SDS011;52945;51.908;8.364;2023-09-19T14:13:01;4.05;;;1.08;;
66139;SDS011;52945;51.908;8.364;2023-09-19T14:16:11;3.05;;;1.10;;
66139;SDS011;52945;51.908;8.364;2023-09-19T14:19:13;3.20;;;1.00;;
66139;SDS011;52945;51.908;8.364;2023-09-19T14:22:16;8.50;;;4.38;;
66139;SDS011;52945;51.908;8.364;2023-09-19T14:25:16;2.13;;;0.90;;
66139;SDS011;52945;51.908;8.364;2023-09-19T14:28:18;2.00;;;1.08;;
66139;SDS011;52945;51.908;8.364;2023-09-19T14:31:18;3.28;;;1.17;;
66139;SDS011;52945;51.908;8.364;2023-09-19T14:34:19;2.33;;;1.13;;
66139;SDS011;52945;51.908;8.364;2023-09-19T14:37:20;2.90;;;0.95;;
66139;SDS011;52945;51.908;8.364;2023-09-19T14:40:23;3.13;;;1.00;;
66139;SDS011;52945;51.908;8.364;2023-09-19T14:43:25;2.47;;;1.10;;
66139;SDS011;52945;51.908;8.364;2023-09-19T14:46:26;3.80;;;1.05;;
66139;SDS011;52945;51.908;8.364;2023-09-19T14:49:28;3.22;;;1.15;;
66139;SDS011;52945;51.908;8.364;2023-09-19T14:52:29;4.55;;;1.02;;
66139;SDS011;52945;51.908;8.364;2023-09-19T14:55:29;2.40;;;0.82;;
66139;SDS011;52945;51.908;8.364;2023-09-19T14:58:34;2.63;;;1.35;;
66139;SDS011;52945;51.908;8.364;2023-09-19T15:01:35;3.22;;;1.00;;
66139;SDS011;52945;51.908;8.364;2023-09-19T15:04:36;4.50;;;1.13;;
66139;SDS011;52945;51.908;8.364;2023-09-19T15:07:40;3.60;;;1.38;;
66139;SDS011;52945;51.908;8.364;2023-09-19T15:10:41;2.50;;;0.90;;
66139;SDS011;52945;51.908;8.364;2023-09-19T15:13:52;4.32;;;1.02;;
66139;SDS011;52945;51.908;8.364;2023-09-19T15:16:57;3.58;;;1.30;;
66139;SDS011;52945;51.908;8.364;2023-09-19T15:19:57;5.47;;;1.20;;
66139;SDS011;52945;51.908;8.364;2023-09-19T15:22:58;3.38;;;1.17;;
66139;SDS011;52945;51.908;8.364;2023-09-19T15:26:00;1.25;;;0.70;;
66139;SDS011;52945;51.908;8.364;2023-09-19T15:29:02;1.98;;;0.70;;
66139;SDS011;52945;51.908;8.364;2023-09-19T15:32:02;6.65;;;0.90;;
66139;SDS011;52945;51.908;8.364;2023-09-19T15:35:03;3.08;;;0.95;;
66139;SDS011;52945;51.908;8.364;2023-09-19T15:38:04;3.15;;;0.90;;
66139;SDS011;52945;51.908;8.364;2023-09-19T15:41:04;2.33;;;0.60;;
66139;SDS011;52945;51.908;8.364;2023-09-19T15:44:11;2.10;;;0.90;;
66139;SDS011;52945;51.908;8.364;2023-09-19T15:47:13;2.60;;;0.70;;
66139;SDS011;52945;51.908;8.364;2023-09-19T15:50:14;1.50;;;0.45;;
66139;SDS011;52945;51.908;8.364;2023-09-19T15:53:15;3.58;;;1.15;;
66139;SDS011;52945;51.908;8.364;2023-09-19T15:56:17;2.88;;;0.70;;
66139;SDS011;52945;51.908;8.364;2023-09-19T15:59:20;1.77;;;0.70;;
66139;SDS011;52945;51.908;8.364;2023-09-19T16:02:21;2.08;;;0.70;;
66139;SDS011;52945;51.908;8.364;2023-09-19T16:05:22;3.78;;;0.63;;
66139;SDS011;52945;51.908;8.364;2023-09-19T16:08:22;2.92;;;0.70;;
66139;SDS011;52945;51.908;8.364;2023-09-19T16:11:25;1.92;;;0.68;;
66139;SDS011;52945;51.908;8.364;2023-09-19T16:14:27;2.35;;;0.82;;
66139;SDS011;52945;51.908;8.364;2023-09-19T16:17:30;2.63;;;0.60;;
66139;SDS011;52945;51.908;8.364;2023-09-19T16:20:31;1.02;;;0.50;;
66139;SDS011;52945;51.908;8.364;2023-09-19T16:23:33;0.52;;;0.43;;
66139;SDS011;52945;51.908;8.364;2023-09-19T16:26:35;3.88;;;0.40;;
66139;SDS011;52945;51.908;8.364;2023-09-19T16:29:35;2.13;;;0.73;;
66139;SDS011;52945;51.908;8.364;2023-09-19T16:32:36;1.48;;;0.70;;
66139;SDS011;52945;51.908;8.364;2023-09-19T16:35:37;0.57;;;0.32;;
66139;SDS011;52945;51.908;8.364;2023-09-19T16:38:39;1.85;;;0.40;;
66139;SDS011;52945;51.908;8.364;2023-09-19T16:41:41;1.77;;;0.65;;
66139;SDS011;52945;51.908;8.364;2023-09-19T16:44:42;1.45;;;0.50;;
66139;SDS011;52945;51.908;8.364;2023-09-19T16:47:42;1.27;;;0.50;;
66139;SDS011;52945;51.908;8.364;2023-09-19T16:50:44;1.98;;;0.75;;
66139;SDS011;52945;51.908;8.364;2023-09-19T16:53:44;1.98;;;0.68;;
66139;SDS011;52945;51.908;8.364;2023-09-19T16:56:45;1.92;;;0.57;;
66139;SDS011;52945;51.908;8.364;2023-09-19T16:59:46;2.75;;;0.60;;
66139;SDS011;52945;51.908;8.364;2023-09-19T17:02:46;1.58;;;0.60;;
66139;SDS011;52945;51.908;8.364;2023-09-19T17:05:47;2.72;;;0.65;;
66139;SDS011;52945;51.908;8.364;2023-09-19T17:08:49;2.00;;;0.75;;
66139;SDS011;52945;51.908;8.364;2023-09-19T17:11:50;1.33;;;0.47;;
66139;SDS011;52945;51.908;8.364;2023-09-19T17:14:51;2.22;;;0.70;;
66139;SDS011;52945;51.908;8.364;2023-09-19T17:17:52;0.85;;;0.65;;
66139;SDS011;52945;51.908;8.364;2023-09-19T17:20:54;2.70;;;0.57;;
66139;SDS011;52945;51.908;8.364;2023-09-19T17:23:54;2.05;;;0.50;;
66139;SDS011;52945;51.908;8.364;2023-09-19T17:26:58;3.78;;;0.90;;
66139;SDS011;52945;51.908;8.364;2023-09-19T17:29:59;2.05;;;0.60;;
66139;SDS011;52945;51.908;8.364;2023-09-19T17:33:01;4.78;;;0.70;;
66139;SDS011;52945;51.908;8.364;2023-09-19T17:36:05;1.30;;;0.40;;
66139;SDS011;52945;51.908;8.364;2023-09-19T17:39:07;3.05;;;0.52;;
66139;SDS011;52945;51.908;8.364;2023-09-19T17:42:10;1.75;;;0.63;;
66139;SDS011;52945;51.908;8.364;2023-09-19T17:45:12;0.88;;;0.63;;
66139;SDS011;52945;51.908;8.364;2023-09-19T17:48:14;0.55;;;0.40;;
66139;SDS011;52945;51.908;8.364;2023-09-19T17:51:15;1.40;;;0.73;;
66139;SDS011;52945;51.908;8.364;2023-09-19T17:54:19;2.35;;;0.77;;
66139;SDS011;52945;51.908;8.364;2023-09-19T17:57:19;1.13;;;0.57;;
66139;SDS011;52945;51.908;8.364;2023-09-19T18:00:21;2.95;;;0.77;;
66139;SDS011;52945;51.908;8.364;2023-09-19T18:03:22;1.60;;;0.60;;
66139;SDS011;52945;51.908;8.364;2023-09-19T18:06:27;4.00;;;0.60;;
66139;SDS011;52945;51.908;8.364;2023-09-19T18:09:29;2.58;;;0.70;;
66139;SDS011;52945;51.908;8.364;2023-09-19T18:12:30;1.98;;;0.70;;
66139;SDS011;52945;51.908;8.364;2023-09-19T18:15:31;2.60;;;0.75;;
66139;SDS011;52945;51.908;8.364;2023-09-19T18:18:37;2.88;;;0.70;;
66139;SDS011;52945;51.908;8.364;2023-09-19T18:21:38;1.08;;;0.60;;
66139;SDS011;52945;51.908;8.364;2023-09-19T18:24:39;2.47;;;0.75;;
66139;SDS011;52945;51.908;8.364;2023-09-19T18:27:40;2.03;;;0.75;;
66139;SDS011;52945;51.908;8.364;2023-09-19T18:30:41;1.20;;;0.73;;
66139;SDS011;52945;51.908;8.364;2023-09-19T18:33:43;2.65;;;0.88;;
66139;SDS011;52945;51.908;8.364;2023-09-19T18:36:44;2.03;;;0.85;;
66139;SDS011;52945;51.908;8.364;2023-09-19T18:39:45;3.42;;;0.93;;
66139;SDS011;52945;51.908;8.364;2023-09-19T18:42:46;1.55;;;0.55;;
66139;SDS011;52945;51.908;8.364;2023-09-19T18:45:56;2.15;;;0.90;;
66139;SDS011;52945;51.908;8.364;2023-09-19T18:48:58;2.15;;;0.60;;
66139;SDS011;52945;51.908;8.364;2023-09-19T18:51:59;1.67;;;0.68;;
66139;SDS011;52945;51.908;8.364;2023-09-19T18:55:00;3.03;;;0.88;;
66139;SDS011;52945;51.908;8.364;2023-09-19T18:58:00;1.20;;;0.60;;
66139;SDS011;52945;51.908;8.364;2023-09-19T19:01:04;0.65;;;0.63;;
66139;SDS011;52945;51.908;8.364;2023-09-19T19:04:07;2.17;;;0.60;;
66139;SDS011;52945;51.908;8.364;2023-09-19T19:07:08;2.80;;;0.65;;
66139;SDS011;52945;51.908;8.364;2023-09-19T19:10:11;3.97;;;0.52;;
66139;SDS011;52945;51.908;8.364;2023-09-19T19:13:13;1.23;;;0.50;;
66139;SDS011;52945;51.908;8.364;2023-09-19T19:16:14;2.92;;;0.90;;
66139;SDS011;52945;51.908;8.364;2023-09-19T19:19:15;1.48;;;0.73;;
66139;SDS011;52945;51.908;8.364;2023-09-19T19:22:16;1.05;;;0.63;;
66139;SDS011;52945;51.908;8.364;2023-09-19T19:25:16;1.60;;;0.75;;
66139;SDS011;52945;51.908;8.364;2023-09-19T19:28:19;3.53;;;0.85;;
66139;SDS011;52945;51.908;8.364;2023-09-19T19:31:20;1.98;;;0.80;;
66139;SDS011;52945;51.908;8.364;2023-09-19T19:34:22;2.50;;;0.95;;
66139;SDS011;52945;51.908;8.364;2023-09-19T19:37:24;1.60;;;0.60;;
66139;SDS011;52945;51.908;8.364;2023-09-19T19:40:25;1.75;;;0.82;;
66139;SDS011;52945;51.908;8.364;2023-09-19T19:43:29;0.93;;;0.77;;
66139;SDS011;52945;51.908;8.364;2023-09-19T19:46:47;3.13;;;0.63;;
66139;SDS011;52945;51.908;8.364;2023-09-19T19:49:48;2.75;;;0.93;;
66139;SDS011;52945;51.908;8.364;2023-09-19T19:52:55;4.93;;;0.80;;
66139;SDS011;52945;51.908;8.364;2023-09-19T19:55:58;2.17;;;0.73;;
66139;SDS011;52945;51.908;8.364;2023-09-19T19:59:00;3.67;;;0.90;;
66139;SDS011;52945;51.908;8.364;2023-09-19T20:02:03;2.00;;;0.60;;
66139;SDS011;52945;51.908;8.364;2023-09-19T20:05:06;2.45;;;1.00;;
66139;SDS011;52945;51.908;8.364;2023-09-19T20:08:08;4.00;;;0.90;;
66139;SDS011;52945;51.908;8.364;2023-09-19T20:11:13;1.85;;;0.60;;
66139;SDS011;52945;51.908;8.364;2023-09-19T20:14:13;1.48;;;0.60;;
66139;SDS011;52945;51.908;8.364;2023-09-19T20:17:15;1.77;;;0.70;;
66139;SDS011;52945;51.908;8.364;2023-09-19T20:20:15;2.85;;;0.80;;
66139;SDS011;52945;51.908;8.364;2023-09-19T20:23:18;2.13;;;0.90;;
66139;SDS011;52945;51.908;8.364;2023-09-19T20:26:19;2.10;;;0.77;;
66139;SDS011;52945;51.908;8.364;2023-09-19T20:29:20;2.58;;;0.93;;
66139;SDS011;52945;51.908;8.364;2023-09-19T20:32:22;1.38;;;0.70;;
66139;SDS011;52945;51.908;8.364;2023-09-19T20:35:24;3.63;;;0.98;;
66139;SDS011;52945;51.908;8.364;2023-09-19T20:38:26;3.58;;;0.90;;